sensor_id;sensor_type;location;lat;lon;timestamp;temperature;humidity
10453;DHT22;5274;51.992;8.518;2022-11-20T00:02:20;-4.70;1.00
10453;DHT22;5274;51.992;8.518;2022-11-20T00:04:46;-4.60;1.00
10453;DHT22;5274;51.992;8.518;2022-11-20T00:07:11;-4.80;1.00
10453;DHT22;5274;51.992;8.518;2022-11-20T00:09:37;-4.80;1.00
10453;DHT22;5274;51.992;8.518;2022-11-20T00:12:02;-4.80;1.00
10453;DHT22;5274;51.992;8.518;2022-11-20T00:14:28;-4.80;1.00
10453;DHT22;5274;51.992;8.518;2022-11-20T00:16:54;-4.90;1.00
10453;DHT22;5274;51.992;8.518;2022-11-20T00:19:19;-4.90;1.00
10453;DHT22;5274;51.992;8.518;2022-11-20T00:21:45;-4.90;1.00
10453;DHT22;5274;51.992;8.518;2022-11-20T00:24:10;-4.90;1.00
10453;DHT22;5274;51.992;8.518;2022-11-20T00:26:36;-4.90;1.00
10453;DHT22;5274;51.992;8.518;2022-11-20T00:29:02;-5.00;1.00
10453;DHT22;5274;51.992;8.518;2022-11-20T00:31:29;-5.00;1.00
10453;DHT22;5274;51.992;8.518;2022-11-20T00:33:55;-5.00;1.00
10453;DHT22;5274;51.992;8.518;2022-11-20T00:36:23;-4.90;1.00
10453;DHT22;5274;51.992;8.518;2022-11-20T00:38:56;-5.00;1.00
10453;DHT22;5274;51.992;8.518;2022-11-20T00:41:23;-5.00;1.00
10453;DHT22;5274;51.992;8.518;2022-11-20T00:43:49;-5.00;1.00
10453;DHT22;5274;51.992;8.518;2022-11-20T00:46:18;-5.00;1.00
10453;DHT22;5274;51.992;8.518;2022-11-20T00:48:45;-5.00;1.00
10453;DHT22;5274;51.992;8.518;2022-11-20T00:51:12;-5.10;1.00
10453;DHT22;5274;51.992;8.518;2022-11-20T00:53:38;-5.10;1.00
10453;DHT22;5274;51.992;8.518;2022-11-20T00:56:06;-5.00;1.00
10453;DHT22;5274;51.992;8.518;2022-11-20T00:58:37;-5.10;1.00
10453;DHT22;5274;51.992;8.518;2022-11-20T01:01:08;-5.00;1.00
10453;DHT22;5274;51.992;8.518;2022-11-20T01:03:35;-4.90;1.00
10453;DHT22;5274;51.992;8.518;2022-11-20T01:06:03;-4.80;1.00
10453;DHT22;5274;51.992;8.518;2022-11-20T01:08:36;-4.80;1.00
10453;DHT22;5274;51.992;8.518;2022-11-20T01:11:13;-4.70;1.00
10453;DHT22;5274;51.992;8.518;2022-11-20T01:13:39;-4.80;1.00
10453;DHT22;5274;51.992;8.518;2022-11-20T01:16:14;-4.80;1.00
10453;DHT22;5274;51.992;8.518;2022-11-20T01:18:42;-4.80;1.00
10453;DHT22;5274;51.992;8.518;2022-11-20T01:21:10;-4.60;1.00
10453;DHT22;5274;51.992;8.518;2022-11-20T01:23:39;-4.50;1.00
10453;DHT22;5274;51.992;8.518;2022-11-20T01:26:07;-4.60;1.00
10453;DHT22;5274;51.992;8.518;2022-11-20T01:28:33;-4.60;1.00
10453;DHT22;5274;51.992;8.518;2022-11-20T01:31:00;-4.70;1.00
10453;DHT22;5274;51.992;8.518;2022-11-20T01:33:26;-4.70;1.00
10453;DHT22;5274;51.992;8.518;2022-11-20T01:35:52;-4.70;1.00
10453;DHT22;5274;51.992;8.518;2022-11-20T01:38:18;-4.70;1.00
10453;DHT22;5274;51.992;8.518;2022-11-20T01:40:45;-4.80;1.00
10453;DHT22;5274;51.992;8.518;2022-11-20T01:43:17;-4.90;1.00
10453;DHT22;5274;51.992;8.518;2022-11-20T01:45:59;-4.80;1.00
10453;DHT22;5274;51.992;8.518;2022-11-20T01:48:46;-5.00;1.00
10453;DHT22;5274;51.992;8.518;2022-11-20T01:51:23;-5.00;1.00
10453;DHT22;5274;51.992;8.518;2022-11-20T01:53:52;-5.10;99.90
10453;DHT22;5274;51.992;8.518;2022-11-20T01:56:19;-5.20;99.90
10453;DHT22;5274;51.992;8.518;2022-11-20T01:58:50;-5.20;99.90
10453;DHT22;5274;51.992;8.518;2022-11-20T02:01:17;-5.20;99.90
10453;DHT22;5274;51.992;8.518;2022-11-20T02:03:43;-4.10;99.90
10453;DHT22;5274;51.992;8.518;2022-11-20T02:06:31;-5.20;99.90
10453;DHT22;5274;51.992;8.518;2022-11-20T02:08:57;-5.20;1.00
10453;DHT22;5274;51.992;8.518;2022-11-20T02:11:23;-5.20;1.00
10453;DHT22;5274;51.992;8.518;2022-11-20T02:13:49;-5.30;99.90
10453;DHT22;5274;51.992;8.518;2022-11-20T02:16:16;-5.30;99.90
10453;DHT22;5274;51.992;8.518;2022-11-20T02:18:44;-5.30;99.90
10453;DHT22;5274;51.992;8.518;2022-11-20T02:21:19;-5.30;99.90
10453;DHT22;5274;51.992;8.518;2022-11-20T02:26:18;-5.30;1.00
10453;DHT22;5274;51.992;8.518;2022-11-20T02:28:45;-5.40;1.00
10453;DHT22;5274;51.992;8.518;2022-11-20T02:31:10;-5.40;1.00
10453;DHT22;5274;51.992;8.518;2022-11-20T02:33:36;-5.40;1.00
10453;DHT22;5274;51.992;8.518;2022-11-20T02:36:01;-5.40;1.00
10453;DHT22;5274;51.992;8.518;2022-11-20T02:38:27;-5.40;99.90
10453;DHT22;5274;51.992;8.518;2022-11-20T02:40:52;-5.40;99.90
10453;DHT22;5274;51.992;8.518;2022-11-20T02:43:18;-5.40;99.90
10453;DHT22;5274;51.992;8.518;2022-11-20T02:45:44;-5.50;99.90
10453;DHT22;5274;51.992;8.518;2022-11-20T02:48:09;-5.50;99.90
10453;DHT22;5274;51.992;8.518;2022-11-20T02:50:39;-5.50;99.90
10453;DHT22;5274;51.992;8.518;2022-11-20T02:53:05;-5.30;99.90
10453;DHT22;5274;51.992;8.518;2022-11-20T02:55:30;-5.50;99.90
10453;DHT22;5274;51.992;8.518;2022-11-20T02:57:56;-5.60;99.90
10453;DHT22;5274;51.992;8.518;2022-11-20T03:00:21;-5.60;99.90
10453;DHT22;5274;51.992;8.518;2022-11-20T03:02:47;-5.60;99.90
10453;DHT22;5274;51.992;8.518;2022-11-20T03:05:13;-5.60;99.90
10453;DHT22;5274;51.992;8.518;2022-11-20T03:07:38;-5.60;99.90
10453;DHT22;5274;51.992;8.518;2022-11-20T03:10:04;-5.60;99.90
10453;DHT22;5274;51.992;8.518;2022-11-20T03:12:30;-5.70;99.90
10453;DHT22;5274;51.992;8.518;2022-11-20T03:14:55;-5.70;99.90
10453;DHT22;5274;51.992;8.518;2022-11-20T03:17:21;-5.70;99.90
10453;DHT22;5274;51.992;8.518;2022-11-20T03:19:47;-5.60;99.90
10453;DHT22;5274;51.992;8.518;2022-11-20T03:22:12;-5.70;99.90
10453;DHT22;5274;51.992;8.518;2022-11-20T03:24:38;-5.70;99.90
10453;DHT22;5274;51.992;8.518;2022-11-20T03:27:03;-5.80;82.00
10453;DHT22;5274;51.992;8.518;2022-11-20T03:29:29;-5.80;5.40
10453;DHT22;5274;51.992;8.518;2022-11-20T03:31:54;-5.80;1.00
10453;DHT22;5274;51.992;8.518;2022-11-20T03:34:20;-5.80;17.60
10453;DHT22;5274;51.992;8.518;2022-11-20T03:36:45;-5.70;26.20
10453;DHT22;5274;51.992;8.518;2022-11-20T03:39:11;-5.80;43.30
10453;DHT22;5274;51.992;8.518;2022-11-20T03:41:38;-5.80;14.90
10453;DHT22;5274;51.992;8.518;2022-11-20T03:44:06;-5.90;8.70
10453;DHT22;5274;51.992;8.518;2022-11-20T03:46:32;-5.90;60.60
10453;DHT22;5274;51.992;8.518;2022-11-20T03:48:58;-5.90;68.30
10453;DHT22;5274;51.992;8.518;2022-11-20T03:51:26;-5.90;39.90
10453;DHT22;5274;51.992;8.518;2022-11-20T03:53:54;-5.90;15.20
10453;DHT22;5274;51.992;8.518;2022-11-20T03:56:23;-5.90;26.90
10453;DHT22;5274;51.992;8.518;2022-11-20T03:58:50;-4.50;1.00
10453;DHT22;5274;51.992;8.518;2022-11-20T04:01:18;-6.00;1.00
10453;DHT22;5274;51.992;8.518;2022-11-20T04:03:45;-6.00;23.60
10453;DHT22;5274;51.992;8.518;2022-11-20T04:06:18;-5.90;91.20
10453;DHT22;5274;51.992;8.518;2022-11-20T04:08:44;-6.00;98.60
10453;DHT22;5274;51.992;8.518;2022-11-20T04:11:37;-6.00;57.40
10453;DHT22;5274;51.992;8.518;2022-11-20T04:14:05;-6.00;1.00
10453;DHT22;5274;51.992;8.518;2022-11-20T04:16:35;-6.00;1.00
10453;DHT22;5274;51.992;8.518;2022-11-20T04:19:04;-6.10;1.00
10453;DHT22;5274;51.992;8.518;2022-11-20T04:21:30;-6.10;1.90
10453;DHT22;5274;51.992;8.518;2022-11-20T04:23:56;-6.00;8.80
10453;DHT22;5274;51.992;8.518;2022-11-20T04:26:23;-6.10;1.00
10453;DHT22;5274;51.992;8.518;2022-11-20T04:28:49;-6.10;20.60
10453;DHT22;5274;51.992;8.518;2022-11-20T04:31:23;-6.00;45.40
10453;DHT22;5274;51.992;8.518;2022-11-20T04:33:49;-6.10;68.20
10453;DHT22;5274;51.992;8.518;2022-11-20T04:36:22;-6.10;52.70
10453;DHT22;5274;51.992;8.518;2022-11-20T04:38:55;-6.20;7.20
10453;DHT22;5274;51.992;8.518;2022-11-20T04:41:22;-6.20;1.00
10453;DHT22;5274;51.992;8.518;2022-11-20T04:43:53;-6.10;1.00
10453;DHT22;5274;51.992;8.518;2022-11-20T04:46:25;-6.10;10.80
10453;DHT22;5274;51.992;8.518;2022-11-20T04:48:50;-6.20;5.20
10453;DHT22;5274;51.992;8.518;2022-11-20T04:51:16;-6.20;1.00
10453;DHT22;5274;51.992;8.518;2022-11-20T04:53:42;-6.20;1.00
10453;DHT22;5274;51.992;8.518;2022-11-20T04:56:09;-6.20;1.00
10453;DHT22;5274;51.992;8.518;2022-11-20T04:58:35;-6.20;1.00
10453;DHT22;5274;51.992;8.518;2022-11-20T05:01:06;-6.20;1.00
10453;DHT22;5274;51.992;8.518;2022-11-20T05:03:33;-6.20;1.00
10453;DHT22;5274;51.992;8.518;2022-11-20T05:06:03;-6.20;1.00
10453;DHT22;5274;51.992;8.518;2022-11-20T05:08:30;-6.20;1.00
10453;DHT22;5274;51.992;8.518;2022-11-20T05:11:15;-6.20;1.00
10453;DHT22;5274;51.992;8.518;2022-11-20T05:13:41;-6.20;1.00
10453;DHT22;5274;51.992;8.518;2022-11-20T05:16:09;-6.10;30.00
10453;DHT22;5274;51.992;8.518;2022-11-20T05:18:36;-5.90;1.00
10453;DHT22;5274;51.992;8.518;2022-11-20T05:21:02;-5.90;1.00
10453;DHT22;5274;51.992;8.518;2022-11-20T05:23:30;-5.90;1.00
10453;DHT22;5274;51.992;8.518;2022-11-20T05:25:57;-5.80;1.00
10453;DHT22;5274;51.992;8.518;2022-11-20T05:28:23;-5.90;1.00
10453;DHT22;5274;51.992;8.518;2022-11-20T05:30:49;-5.90;1.00
10453;DHT22;5274;51.992;8.518;2022-11-20T05:33:15;-5.90;99.90
10453;DHT22;5274;51.992;8.518;2022-11-20T05:35:40;-6.00;99.90
10453;DHT22;5274;51.992;8.518;2022-11-20T05:38:06;-6.10;99.90
10453;DHT22;5274;51.992;8.518;2022-11-20T05:40:31;-6.10;99.90
10453;DHT22;5274;51.992;8.518;2022-11-20T05:42:57;-6.20;99.90
10453;DHT22;5274;51.992;8.518;2022-11-20T05:45:22;-6.20;99.90
10453;DHT22;5274;51.992;8.518;2022-11-20T05:47:48;-6.20;99.90
10453;DHT22;5274;51.992;8.518;2022-11-20T05:50:14;-6.20;99.90
10453;DHT22;5274;51.992;8.518;2022-11-20T05:52:40;-6.20;99.90
10453;DHT22;5274;51.992;8.518;2022-11-20T05:55:06;-6.30;99.90
10453;DHT22;5274;51.992;8.518;2022-11-20T05:57:32;-6.30;99.90
10453;DHT22;5274;51.992;8.518;2022-11-20T05:59:57;-6.20;99.90
10453;DHT22;5274;51.992;8.518;2022-11-20T06:02:23;-6.30;99.90
10453;DHT22;5274;51.992;8.518;2022-11-20T06:04:48;-6.20;99.90
10453;DHT22;5274;51.992;8.518;2022-11-20T06:07:14;-6.10;99.90
10453;DHT22;5274;51.992;8.518;2022-11-20T06:09:39;-6.20;1.00
10453;DHT22;5274;51.992;8.518;2022-11-20T06:12:05;-6.10;1.00
10453;DHT22;5274;51.992;8.518;2022-11-20T06:14:31;-6.10;1.00
10453;DHT22;5274;51.992;8.518;2022-11-20T06:16:56;-5.90;1.00
10453;DHT22;5274;51.992;8.518;2022-11-20T06:19:22;-5.80;1.00
10453;DHT22;5274;51.992;8.518;2022-11-20T06:21:48;-5.90;99.90
10453;DHT22;5274;51.992;8.518;2022-11-20T06:24:17;-5.80;99.90
10453;DHT22;5274;51.992;8.518;2022-11-20T06:26:44;-5.80;99.90
10453;DHT22;5274;51.992;8.518;2022-11-20T06:29:09;-5.90;99.90
10453;DHT22;5274;51.992;8.518;2022-11-20T06:31:35;-5.90;99.90
10453;DHT22;5274;51.992;8.518;2022-11-20T06:34:03;-5.90;99.90
10453;DHT22;5274;51.992;8.518;2022-11-20T06:36:29;-5.90;99.90
10453;DHT22;5274;51.992;8.518;2022-11-20T06:38:55;-5.90;99.90
10453;DHT22;5274;51.992;8.518;2022-11-20T06:41:21;-5.90;1.00
10453;DHT22;5274;51.992;8.518;2022-11-20T06:43:47;-5.90;1.00
10453;DHT22;5274;51.992;8.518;2022-11-20T06:46:14;-5.90;1.00
10453;DHT22;5274;51.992;8.518;2022-11-20T06:48:43;-5.90;1.00
10453;DHT22;5274;51.992;8.518;2022-11-20T06:51:09;-5.90;1.00
10453;DHT22;5274;51.992;8.518;2022-11-20T06:53:35;-5.90;1.00
10453;DHT22;5274;51.992;8.518;2022-11-20T06:56:00;-5.90;1.50
10453;DHT22;5274;51.992;8.518;2022-11-20T06:58:27;-5.70;99.90
10453;DHT22;5274;51.992;8.518;2022-11-20T07:00:54;-5.60;99.90
10453;DHT22;5274;51.992;8.518;2022-11-20T07:03:22;-5.60;99.90
10453;DHT22;5274;51.992;8.518;2022-11-20T07:05:48;-5.70;99.90
10453;DHT22;5274;51.992;8.518;2022-11-20T07:08:13;-5.50;99.90
10453;DHT22;5274;51.992;8.518;2022-11-20T07:10:39;-5.60;99.90
10453;DHT22;5274;51.992;8.518;2022-11-20T07:13:04;-5.60;99.90
10453;DHT22;5274;51.992;8.518;2022-11-20T07:15:30;-5.60;99.90
10453;DHT22;5274;51.992;8.518;2022-11-20T07:17:58;-5.50;99.90
10453;DHT22;5274;51.992;8.518;2022-11-20T07:20:24;-5.40;1.00
10453;DHT22;5274;51.992;8.518;2022-11-20T07:22:54;-5.20;1.00
10453;DHT22;5274;51.992;8.518;2022-11-20T07:25:20;-5.00;1.00
10453;DHT22;5274;51.992;8.518;2022-11-20T07:27:45;-4.80;1.00
10453;DHT22;5274;51.992;8.518;2022-11-20T07:30:12;-4.70;1.00
10453;DHT22;5274;51.992;8.518;2022-11-20T07:32:37;-4.50;1.00
10453;DHT22;5274;51.992;8.518;2022-11-20T07:35:03;-4.40;1.00
10453;DHT22;5274;51.992;8.518;2022-11-20T07:37:29;-4.40;1.00
10453;DHT22;5274;51.992;8.518;2022-11-20T07:39:54;-4.20;1.00
10453;DHT22;5274;51.992;8.518;2022-11-20T07:42:20;-4.10;1.00
10453;DHT22;5274;51.992;8.518;2022-11-20T07:44:45;-4.00;1.00
10453;DHT22;5274;51.992;8.518;2022-11-20T07:47:11;-3.90;1.00
10453;DHT22;5274;51.992;8.518;2022-11-20T07:49:36;-3.80;8.90
10453;DHT22;5274;51.992;8.518;2022-11-20T07:52:02;-3.70;18.00
10453;DHT22;5274;51.992;8.518;2022-11-20T07:54:28;-3.60;28.30
10453;DHT22;5274;51.992;8.518;2022-11-20T07:56:53;-3.50;33.20
10453;DHT22;5274;51.992;8.518;2022-11-20T07:59:19;-3.40;34.90
10453;DHT22;5274;51.992;8.518;2022-11-20T08:01:44;-3.40;32.50
10453;DHT22;5274;51.992;8.518;2022-11-20T08:04:10;-3.30;28.50
10453;DHT22;5274;51.992;8.518;2022-11-20T08:06:36;-3.20;27.90
10453;DHT22;5274;51.992;8.518;2022-11-20T08:09:02;-3.10;22.20
10453;DHT22;5274;51.992;8.518;2022-11-20T08:11:28;-3.10;2.00
10453;DHT22;5274;51.992;8.518;2022-11-20T08:14:12;-3.00;1.00
10453;DHT22;5274;51.992;8.518;2022-11-20T08:16:45;-2.90;1.00
10453;DHT22;5274;51.992;8.518;2022-11-20T08:19:13;-2.90;1.00
10453;DHT22;5274;51.992;8.518;2022-11-20T08:21:39;-2.90;1.00
10453;DHT22;5274;51.992;8.518;2022-11-20T08:24:05;-2.80;1.00
10453;DHT22;5274;51.992;8.518;2022-11-20T08:26:31;-2.70;1.00
10453;DHT22;5274;51.992;8.518;2022-11-20T08:28:57;-2.60;1.00
10453;DHT22;5274;51.992;8.518;2022-11-20T08:31:24;-2.50;1.00
10453;DHT22;5274;51.992;8.518;2022-11-20T08:33:50;-2.50;1.00
10453;DHT22;5274;51.992;8.518;2022-11-20T08:36:16;-2.40;1.00
10453;DHT22;5274;51.992;8.518;2022-11-20T08:38:42;-2.40;1.00
10453;DHT22;5274;51.992;8.518;2022-11-20T08:41:07;-2.30;1.00
10453;DHT22;5274;51.992;8.518;2022-11-20T08:46:43;-2.10;99.90
10453;DHT22;5274;51.992;8.518;2022-11-20T08:49:12;-2.10;1.00
10453;DHT22;5274;51.992;8.518;2022-11-20T08:51:39;-2.00;1.00
10453;DHT22;5274;51.992;8.518;2022-11-20T08:54:05;-2.00;1.00
10453;DHT22;5274;51.992;8.518;2022-11-20T08:56:31;-1.80;1.00
10453;DHT22;5274;51.992;8.518;2022-11-20T08:58:57;-1.80;99.90
10453;DHT22;5274;51.992;8.518;2022-11-20T09:01:24;-1.60;52.30
10453;DHT22;5274;51.992;8.518;2022-11-20T09:03:50;-1.60;1.00
10453;DHT22;5274;51.992;8.518;2022-11-20T09:06:16;-1.50;1.00
10453;DHT22;5274;51.992;8.518;2022-11-20T09:08:42;-1.40;1.00
10453;DHT22;5274;51.992;8.518;2022-11-20T09:11:07;-1.30;99.90
10453;DHT22;5274;51.992;8.518;2022-11-20T09:13:34;-1.20;99.90
10453;DHT22;5274;51.992;8.518;2022-11-20T09:16:06;-1.10;1.00
10453;DHT22;5274;51.992;8.518;2022-11-20T09:18:32;-1.00;1.00
10453;DHT22;5274;51.992;8.518;2022-11-20T09:21:02;-1.00;1.00
10453;DHT22;5274;51.992;8.518;2022-11-20T09:23:31;-1.00;1.00
10453;DHT22;5274;51.992;8.518;2022-11-20T09:26:02;-0.90;38.60
10453;DHT22;5274;51.992;8.518;2022-11-20T09:28:27;-0.70;99.90
10453;DHT22;5274;51.992;8.518;2022-11-20T09:30:53;-0.70;1.00
10453;DHT22;5274;51.992;8.518;2022-11-20T09:33:18;-0.60;1.00
10453;DHT22;5274;51.992;8.518;2022-11-20T09:35:44;-0.50;99.90
10453;DHT22;5274;51.992;8.518;2022-11-20T09:38:10;-0.50;47.50
10453;DHT22;5274;51.992;8.518;2022-11-20T09:40:39;-0.30;15.60
10453;DHT22;5274;51.992;8.518;2022-11-20T09:45:57;0.20;1.00
10453;DHT22;5274;51.992;8.518;2022-11-20T09:48:29;0.30;99.90
10453;DHT22;5274;51.992;8.518;2022-11-20T09:53:52;0.70;1.00
10453;DHT22;5274;51.992;8.518;2022-11-20T09:56:20;0.90;30.00
10453;DHT22;5274;51.992;8.518;2022-11-20T09:58:51;1.20;99.90
10453;DHT22;5274;51.992;8.518;2022-11-20T10:01:23;1.30;99.90
10453;DHT22;5274;51.992;8.518;2022-11-20T10:06:41;1.20;1.00
10453;DHT22;5274;51.992;8.518;2022-11-20T10:12:05;1.40;58.40
10453;DHT22;5274;51.992;8.518;2022-11-20T10:14:50;1.40;99.90
10453;DHT22;5274;51.992;8.518;2022-11-20T10:17:28;1.40;99.90
10453;DHT22;5274;51.992;8.518;2022-11-20T10:20:01;1.40;1.00
10453;DHT22;5274;51.992;8.518;2022-11-20T10:22:35;1.50;1.00
10453;DHT22;5274;51.992;8.518;2022-11-20T10:30:42;1.90;99.90
10453;DHT22;5274;51.992;8.518;2022-11-20T10:33:21;2.10;1.00
10453;DHT22;5274;51.992;8.518;2022-11-20T10:38:51;2.20;1.00
10453;DHT22;5274;51.992;8.518;2022-11-20T10:41:26;2.00;1.00
10453;DHT22;5274;51.992;8.518;2022-11-20T10:46:45;1.50;30.40
10453;DHT22;5274;51.992;8.518;2022-11-20T10:49:16;1.30;99.90
10453;DHT22;5274;51.992;8.518;2022-11-20T10:51:56;1.20;99.90
10453;DHT22;5274;51.992;8.518;2022-11-20T10:56:52;1.20;99.90
10453;DHT22;5274;51.992;8.518;2022-11-20T11:02:23;1.30;1.00
10453;DHT22;5274;51.992;8.518;2022-11-20T11:04:53;1.20;99.90
10453;DHT22;5274;51.992;8.518;2022-11-20T11:07:28;1.10;1.00
10453;DHT22;5274;51.992;8.518;2022-11-20T11:09:56;1.20;1.00
10453;DHT22;5274;51.992;8.518;2022-11-20T11:12:25;1.20;99.90
10453;DHT22;5274;51.992;8.518;2022-11-20T11:14:54;1.30;99.90
10453;DHT22;5274;51.992;8.518;2022-11-20T11:17:28;1.40;1.00
10453;DHT22;5274;51.992;8.518;2022-11-20T11:22:29;4.40;1.00
10453;DHT22;5274;51.992;8.518;2022-11-20T11:24:55;6.60;1.00
10453;DHT22;5274;51.992;8.518;2022-11-20T11:27:21;8.20;99.90
10453;DHT22;5274;51.992;8.518;2022-11-20T11:29:47;9.80;99.90
10453;DHT22;5274;51.992;8.518;2022-11-20T11:32:18;11.00;99.90
10453;DHT22;5274;51.992;8.518;2022-11-20T11:35:01;12.10;99.90
10453;DHT22;5274;51.992;8.518;2022-11-20T11:37:33;12.60;99.90
10453;DHT22;5274;51.992;8.518;2022-11-20T11:40:00;12.90;99.90
10453;DHT22;5274;51.992;8.518;2022-11-20T11:42:27;13.40;99.90
10453;DHT22;5274;51.992;8.518;2022-11-20T11:44:53;13.70;99.90
10453;DHT22;5274;51.992;8.518;2022-11-20T11:50:24;13.40;99.90
10453;DHT22;5274;51.992;8.518;2022-11-20T11:53:43;14.10;99.90
10453;DHT22;5274;51.992;8.518;2022-11-20T11:56:03;15.30;99.90
10453;DHT22;5274;51.992;8.518;2022-11-20T11:58:44;16.20;99.90
10453;DHT22;5274;51.992;8.518;2022-11-20T12:04:07;16.00;86.80
10453;DHT22;5274;51.992;8.518;2022-11-20T12:06:36;14.20;84.10
10453;DHT22;5274;51.992;8.518;2022-11-20T12:09:05;12.70;88.40
10453;DHT22;5274;51.992;8.518;2022-11-20T12:14:34;9.80;94.40
10453;DHT22;5274;51.992;8.518;2022-11-20T12:17:01;8.40;99.90
10453;DHT22;5274;51.992;8.518;2022-11-20T12:19:29;7.80;99.90
10453;DHT22;5274;51.992;8.518;2022-11-20T12:22:09;6.90;99.90
10453;DHT22;5274;51.992;8.518;2022-11-20T12:25:02;6.90;99.90
10453;DHT22;5274;51.992;8.518;2022-11-20T12:30:19;6.90;99.90
10453;DHT22;5274;51.992;8.518;2022-11-20T12:41:14;7.10;99.90
10453;DHT22;5274;51.992;8.518;2022-11-20T12:44:18;6.80;99.90
10453;DHT22;5274;51.992;8.518;2022-11-20T12:47:24;5.80;99.90
10453;DHT22;5274;51.992;8.518;2022-11-20T12:52:48;5.30;99.90
10453;DHT22;5274;51.992;8.518;2022-11-20T12:55:47;5.30;99.90
10453;DHT22;5274;51.992;8.518;2022-11-20T13:01:15;5.60;99.90
10453;DHT22;5274;51.992;8.518;2022-11-20T13:06:35;7.90;99.90
10453;DHT22;5274;51.992;8.518;2022-11-20T13:09:02;9.30;99.90
10453;DHT22;5274;51.992;8.518;2022-11-20T13:14:37;8.40;99.90
10453;DHT22;5274;51.992;8.518;2022-11-20T13:17:21;7.50;99.90
10453;DHT22;5274;51.992;8.518;2022-11-20T13:19:57;6.50;99.90
10453;DHT22;5274;51.992;8.518;2022-11-20T13:22:45;6.10;99.90
10453;DHT22;5274;51.992;8.518;2022-11-20T13:25:30;5.90;99.90
10453;DHT22;5274;51.992;8.518;2022-11-20T13:27:58;5.70;99.90
10453;DHT22;5274;51.992;8.518;2022-11-20T13:30:27;5.50;99.90
10453;DHT22;5274;51.992;8.518;2022-11-20T13:32:56;5.30;99.90
10453;DHT22;5274;51.992;8.518;2022-11-20T13:35:31;5.20;99.90
10453;DHT22;5274;51.992;8.518;2022-11-20T13:38:13;5.20;99.90
10453;DHT22;5274;51.992;8.518;2022-11-20T13:40:52;5.20;99.90
10453;DHT22;5274;51.992;8.518;2022-11-20T13:43:34;5.00;99.90
10453;DHT22;5274;51.992;8.518;2022-11-20T13:46:06;4.70;99.90
10453;DHT22;5274;51.992;8.518;2022-11-20T13:48:34;4.30;99.90
10453;DHT22;5274;51.992;8.518;2022-11-20T14:02:02;3.80;1.00
10453;DHT22;5274;51.992;8.518;2022-11-20T14:04:35;3.70;1.00
10453;DHT22;5274;51.992;8.518;2022-11-20T14:07:05;3.70;1.00
10453;DHT22;5274;51.992;8.518;2022-11-20T14:09:33;3.80;1.00
10453;DHT22;5274;51.992;8.518;2022-11-20T14:11:59;3.90;1.00
10453;DHT22;5274;51.992;8.518;2022-11-20T14:14:26;3.80;1.00
10453;DHT22;5274;51.992;8.518;2022-11-20T14:17:07;3.80;1.00
10453;DHT22;5274;51.992;8.518;2022-11-20T14:19:33;3.80;1.00
10453;DHT22;5274;51.992;8.518;2022-11-20T14:22:20;3.80;1.00
10453;DHT22;5274;51.992;8.518;2022-11-20T14:25:04;3.70;1.00
10453;DHT22;5274;51.992;8.518;2022-11-20T14:27:34;3.60;1.00
10453;DHT22;5274;51.992;8.518;2022-11-20T14:30:02;3.50;1.00
10453;DHT22;5274;51.992;8.518;2022-11-20T14:32:29;3.40;1.00
10453;DHT22;5274;51.992;8.518;2022-11-20T14:35:06;3.30;1.00
10453;DHT22;5274;51.992;8.518;2022-11-20T14:37:37;3.20;1.00
10453;DHT22;5274;51.992;8.518;2022-11-20T14:40:05;3.20;1.00
10453;DHT22;5274;51.992;8.518;2022-11-20T14:42:30;3.20;40.50
10453;DHT22;5274;51.992;8.518;2022-11-20T14:44:58;3.10;82.00
10453;DHT22;5274;51.992;8.518;2022-11-20T14:47:25;3.00;98.40
10453;DHT22;5274;51.992;8.518;2022-11-20T14:49:52;2.90;99.90
10453;DHT22;5274;51.992;8.518;2022-11-20T14:52:21;2.80;99.90
10453;DHT22;5274;51.992;8.518;2022-11-20T14:54:52;2.70;99.90
10453;DHT22;5274;51.992;8.518;2022-11-20T14:57:34;2.70;99.90
10453;DHT22;5274;51.992;8.518;2022-11-20T15:02:30;2.60;99.90
10453;DHT22;5274;51.992;8.518;2022-11-20T15:05:00;2.60;99.90
10453;DHT22;5274;51.992;8.518;2022-11-20T15:07:34;2.50;1.00
10453;DHT22;5274;51.992;8.518;2022-11-20T15:10:11;2.50;1.00
10453;DHT22;5274;51.992;8.518;2022-11-20T15:12:40;2.40;1.00
10453;DHT22;5274;51.992;8.518;2022-11-20T15:15:09;2.40;1.00
10453;DHT22;5274;51.992;8.518;2022-11-20T15:17:37;2.30;1.00
10453;DHT22;5274;51.992;8.518;2022-11-20T15:20:16;2.40;1.00
10453;DHT22;5274;51.992;8.518;2022-11-20T15:22:42;2.30;1.00
10453;DHT22;5274;51.992;8.518;2022-11-20T15:25:15;2.20;1.00
10453;DHT22;5274;51.992;8.518;2022-11-20T15:27:42;2.20;1.00
10453;DHT22;5274;51.992;8.518;2022-11-20T15:30:16;2.10;1.00
10453;DHT22;5274;51.992;8.518;2022-11-20T15:32:43;2.10;1.00
10453;DHT22;5274;51.992;8.518;2022-11-20T15:35:09;2.00;1.00
10453;DHT22;5274;51.992;8.518;2022-11-20T15:37:35;2.10;1.00
10453;DHT22;5274;51.992;8.518;2022-11-20T15:40:01;2.00;1.00
10453;DHT22;5274;51.992;8.518;2022-11-20T15:42:27;1.90;1.00
10453;DHT22;5274;51.992;8.518;2022-11-20T15:44:52;1.90;1.00
10453;DHT22;5274;51.992;8.518;2022-11-20T15:47:29;1.90;1.00
10453;DHT22;5274;51.992;8.518;2022-11-20T15:49:55;1.90;1.00
10453;DHT22;5274;51.992;8.518;2022-11-20T15:52:21;2.00;1.00
10453;DHT22;5274;51.992;8.518;2022-11-20T15:54:47;1.90;1.00
10453;DHT22;5274;51.992;8.518;2022-11-20T15:57:13;2.00;99.90
10453;DHT22;5274;51.992;8.518;2022-11-20T15:59:38;2.00;99.90
10453;DHT22;5274;51.992;8.518;2022-11-20T16:02:14;2.00;99.90
10453;DHT22;5274;51.992;8.518;2022-11-20T16:04:41;2.00;99.90
10453;DHT22;5274;51.992;8.518;2022-11-20T16:07:07;2.00;99.90
10453;DHT22;5274;51.992;8.518;2022-11-20T16:09:33;2.00;99.90
10453;DHT22;5274;51.992;8.518;2022-11-20T16:11:58;2.00;99.90
10453;DHT22;5274;51.992;8.518;2022-11-20T16:14:26;2.00;99.90
10453;DHT22;5274;51.992;8.518;2022-11-20T16:17:10;2.10;99.90
10453;DHT22;5274;51.992;8.518;2022-11-20T16:19:36;2.00;99.90
10453;DHT22;5274;51.992;8.518;2022-11-20T16:22:02;2.00;99.90
10453;DHT22;5274;51.992;8.518;2022-11-20T16:24:27;2.00;99.90
10453;DHT22;5274;51.992;8.518;2022-11-20T16:26:54;2.00;55.50
10453;DHT22;5274;51.992;8.518;2022-11-20T16:29:19;2.10;21.00
10453;DHT22;5274;51.992;8.518;2022-11-20T16:31:45;2.00;1.00
10453;DHT22;5274;51.992;8.518;2022-11-20T16:34:11;2.10;1.00
10453;DHT22;5274;51.992;8.518;2022-11-20T16:36:39;2.10;1.00
10453;DHT22;5274;51.992;8.518;2022-11-20T16:39:04;2.10;1.00
10453;DHT22;5274;51.992;8.518;2022-11-20T16:41:32;2.10;1.00
10453;DHT22;5274;51.992;8.518;2022-11-20T16:44:02;2.10;1.00
10453;DHT22;5274;51.992;8.518;2022-11-20T16:46:31;2.10;1.00
10453;DHT22;5274;51.992;8.518;2022-11-20T16:49:10;2.10;1.00
10453;DHT22;5274;51.992;8.518;2022-11-20T16:51:36;2.10;1.00
10453;DHT22;5274;51.992;8.518;2022-11-20T16:54:03;1.70;1.00
10453;DHT22;5274;51.992;8.518;2022-11-20T16:56:29;2.10;1.00
10453;DHT22;5274;51.992;8.518;2022-11-20T16:58:57;2.10;1.00
10453;DHT22;5274;51.992;8.518;2022-11-20T17:01:24;2.10;1.00
10453;DHT22;5274;51.992;8.518;2022-11-20T17:04:05;2.10;1.00
10453;DHT22;5274;51.992;8.518;2022-11-20T17:06:34;2.10;1.00
10453;DHT22;5274;51.992;8.518;2022-11-20T17:08:59;2.10;1.00
10453;DHT22;5274;51.992;8.518;2022-11-20T17:11:26;2.10;1.00
10453;DHT22;5274;51.992;8.518;2022-11-20T17:13:54;2.10;1.00
10453;DHT22;5274;51.992;8.518;2022-11-20T17:16:21;2.10;1.00
10453;DHT22;5274;51.992;8.518;2022-11-20T17:18:47;2.10;1.00
10453;DHT22;5274;51.992;8.518;2022-11-20T17:21:17;2.10;1.00
10453;DHT22;5274;51.992;8.518;2022-11-20T17:23:44;2.10;1.00
10453;DHT22;5274;51.992;8.518;2022-11-20T17:26:12;2.10;1.00
10453;DHT22;5274;51.992;8.518;2022-11-20T17:29:03;2.10;1.00
10453;DHT22;5274;51.992;8.518;2022-11-20T17:31:30;2.10;1.00
10453;DHT22;5274;51.992;8.518;2022-11-20T17:33:55;2.10;1.00